Time;durP1;ratioP1;P1;durP2;ratioP2;P2;SDS_P1;SDS_P2;PMS_P1;PMS_P2;Temp;Humidity;BMP_temperature;BMP_pressure;BME280_temperature;BME280_humidity;BME280_pressure;Samples;Min_cycle;Max_cycle;Signal;HPM_P1;HPM_P2
2023/03/14 00:02:01;;;;;;;7.27;2.07;;;;;;;;;;4997654;28;20211;-62
2023/03/14 00:04:28;;;;;;;7.00;2.10;;;;;;;;;;4999899;28;20224;-62
2023/03/14 00:06:55;;;;;;;9.83;2.43;;;;;;;;;;5001057;28;20215;-62
2023/03/14 00:09:22;;;;;;;6.73;2.20;;;;;;;;;;5014473;28;20205;-61
2023/03/14 00:11:50;;;;;;;7.20;2.07;;;;;;;;;;5004046;28;20287;-62
2023/03/14 00:14:17;;;;;;;12.40;2.57;;;;;;;;;;5006231;28;20230;-61
2023/03/14 00:16:47;;;;;;;7.10;2.30;;;;;;;;;;5005350;28;20203;-62
2023/03/14 00:19:15;;;;;;;10.63;2.67;;;;;;;;;;5002862;28;20205;-61
2023/03/14 00:21:42;;;;;;;5.33;2.10;;;;;;;;;;4997172;28;20208;-62
2023/03/14 00:24:10;;;;;;;7.77;2.20;;;;;;;;;;4997355;28;20229;-62
2023/03/14 00:26:37;;;;;;;8.63;2.43;;;;;;;;;;4995801;28;20215;-62
2023/03/14 00:29:04;;;;;;;7.23;2.40;;;;;;;;;;4997144;28;20205;-62
2023/03/14 00:31:31;;;;;;;8.73;2.60;;;;;;;;;;5005882;28;20304;-68
2023/03/14 00:33:58;;;;;;;7.10;1.70;;;;;;;;;;5006237;28;20264;-68
2023/03/14 00:36:27;;;;;;;5.87;2.50;;;;;;;;;;5003726;28;20205;-68
2023/03/14 00:38:54;;;;;;;5.40;1.90;;;;;;;;;;5001562;28;20219;-68
2023/03/14 00:41:23;;;;;;;4.40;1.90;;;;;;;;;;4996931;28;20205;-68
2023/03/14 00:43:50;;;;;;;7.23;2.17;;;;;;;;;;4996989;28;20216;-68
2023/03/14 00:46:17;;;;;;;9.50;2.57;;;;;;;;;;4997977;28;20202;-68
2023/03/14 00:48:46;;;;;;;9.80;5.20;;;;;;;;;;4998248;28;20208;-68
2023/03/14 00:51:14;;;;;;;5.90;2.27;;;;;;;;;;4995240;28;20217;-68
2023/03/14 00:53:43;;;;;;;8.23;2.87;;;;;;;;;;4996416;28;20208;-69
2023/03/14 00:56:11;;;;;;;8.80;2.50;;;;;;;;;;4995838;28;20202;-69
2023/03/14 00:58:39;;;;;;;9.23;2.50;;;;;;;;;;4995951;28;20209;-68
2023/03/14 01:01:07;;;;;;;8.47;2.43;;;;;;;;;;4994759;28;20215;-69
2023/03/14 01:03:34;;;;;;;9.37;2.17;;;;;;;;;;4998837;28;20227;-68
2023/03/14 01:06:08;;;;;;;12.07;2.33;;;;;;;;;;5001820;28;20225;-67
2023/03/14 01:08:35;;;;;;;5.73;2.03;;;;;;;;;;5003119;28;20205;-69
2023/03/14 01:11:07;;;;;;;7.20;2.30;;;;;;;;;;4997714;28;20215;-68
2023/03/14 01:13:35;;;;;;;7.83;2.03;;;;;;;;;;4995747;28;20209;-68
2023/03/14 01:16:04;;;;;;;6.97;2.20;;;;;;;;;;4995481;28;20209;-69
2023/03/14 01:18:31;;;;;;;11.10;2.53;;;;;;;;;;4991911;28;20209;-69
2023/03/14 01:20:58;;;;;;;10.77;2.80;;;;;;;;;;4993309;28;20205;-69
2023/03/14 01:23:25;;;;;;;8.30;2.17;;;;;;;;;;4995999;28;20209;-69
2023/03/14 01:25:53;;;;;;;4.60;1.93;;;;;;;;;;4993855;28;20236;-69
2023/03/14 01:28:21;;;;;;;6.97;2.50;;;;;;;;;;4996414;28;20202;-69
2023/03/14 01:30:48;;;;;;;6.23;2.10;;;;;;;;;;4995748;28;20197;-68
2023/03/14 01:33:15;;;;;;;7.53;2.70;;;;;;;;;;4992032;28;20213;-68
2023/03/14 01:35:43;;;;;;;7.93;2.33;;;;;;;;;;4991537;28;20219;-69
2023/03/14 01:38:10;;;;;;;8.07;2.47;;;;;;;;;;4995207;28;20347;-69
2023/03/14 01:40:43;;;;;;;7.43;2.03;;;;;;;;;;4994905;28;20211;-68
2023/03/14 01:43:15;;;;;;;8.30;2.07;;;;;;;;;;4993839;28;20209;-68
2023/03/14 01:46:16;;;;;;;7.00;2.40;;;;;;;;;;4996031;28;20220;-69
2023/03/14 01:48:46;;;;;;;5.10;2.20;;;;;;;;;;4999445;28;20208;-68
2023/03/14 01:51:15;;;;;;;8.23;2.07;;;;;;;;;;4994261;28;20211;-69
2023/03/14 01:53:44;;;;;;;7.67;2.30;;;;;;;;;;4994895;28;20343;-69
2023/03/14 01:56:12;;;;;;;9.00;2.10;;;;;;;;;;4992000;28;20208;-68
2023/03/14 01:58:41;;;;;;;7.30;2.13;;;;;;;;;;4994409;28;20216;-69
2023/03/14 02:01:10;;;;;;;10.77;2.57;;;;;;;;;;4993353;28;20239;-62
2023/03/14 02:03:40;;;;;;;8.00;2.63;;;;;;;;;;4992221;28;20208;-62
2023/03/14 02:06:09;;;;;;;9.03;2.13;;;;;;;;;;4992724;28;20214;-61
2023/03/14 02:08:37;;;;;;;7.03;1.77;;;;;;;;;;4994863;28;20209;-62
2023/03/14 02:11:04;;;;;;;8.57;2.30;;;;;;;;;;4990592;28;20206;-62
2023/03/14 02:13:31;;;;;;;8.57;2.10;;;;;;;;;;4997673;28;20215;-62
2023/03/14 02:15:58;;;;;;;8.60;2.17;;;;;;;;;;4991130;28;20228;-61
2023/03/14 02:18:27;;;;;;;5.57;1.77;;;;;;;;;;4995150;28;20200;-62
2023/03/14 02:20:57;;;;;;;5.93;1.70;;;;;;;;;;4994690;28;20213;-62
2023/03/14 02:23:27;;;;;;;7.57;2.20;;;;;;;;;;4994706;28;20204;-61
2023/03/14 02:25:57;;;;;;;6.53;1.60;;;;;;;;;;4993396;28;20235;-62
2023/03/14 02:28:26;;;;;;;4.67;2.10;;;;;;;;;;4991903;28;20310;-62
2023/03/14 02:56:04;;;;;;;6.87;2.00;;;;;;;;;;5003589;28;20239;-61
2023/03/14 02:58:31;;;;;;;5.80;2.03;;;;;;;;;;4991906;28;20209;-62
2023/03/14 03:00:58;;;;;;;10.23;2.13;;;;;;;;;;4998231;28;20251;-61
2023/03/14 03:03:25;;;;;;;6.13;1.80;;;;;;;;;;4999105;28;20202;-61
2023/03/14 03:05:53;;;;;;;6.43;1.90;;;;;;;;;;5005719;28;20311;-61
2023/03/14 03:08:20;;;;;;;6.07;1.80;;;;;;;;;;5002427;28;20210;-61
2023/03/14 03:10:47;;;;;;;5.93;1.83;;;;;;;;;;4991791;28;20207;-61
2023/03/14 03:13:16;;;;;;;7.87;1.77;;;;;;;;;;4993757;28;20205;-61
2023/03/14 03:15:43;;;;;;;5.73;1.93;;;;;;;;;;4992747;28;20216;-61
2023/03/14 03:18:11;;;;;;;5.30;1.43;;;;;;;;;;4995544;28;20201;-62
2023/03/14 03:20:38;;;;;;;7.70;1.50;;;;;;;;;;4991887;28;20228;-61
2023/03/14 03:23:08;;;;;;;6.70;1.77;;;;;;;;;;4995086;28;20215;-62
2023/03/14 03:25:35;;;;;;;4.77;1.33;;;;;;;;;;4992106;28;20288;-61
2023/03/14 03:28:07;;;;;;;4.03;1.40;;;;;;;;;;4992908;28;20210;-61
2023/03/14 03:30:38;;;;;;;2.90;1.20;;;;;;;;;;4994481;28;20261;-61
2023/03/14 03:33:05;;;;;;;3.50;1.30;;;;;;;;;;5000283;28;20207;-62
2023/03/14 03:35:32;;;;;;;3.60;1.50;;;;;;;;;;4993913;28;20205;-61
2023/03/14 03:37:59;;;;;;;7.13;1.50;;;;;;;;;;4990820;28;20205;-62
2023/03/14 03:40:26;;;;;;;4.37;1.53;;;;;;;;;;4991363;28;20205;-61
2023/03/14 03:42:54;;;;;;;3.13;1.13;;;;;;;;;;4994074;28;20213;-62
2023/03/14 03:45:21;;;;;;;3.40;1.10;;;;;;;;;;4990577;28;20235;-63
2023/03/14 03:47:49;;;;;;;4.73;1.40;;;;;;;;;;4999419;28;20376;-62
2023/03/14 03:50:17;;;;;;;3.63;1.33;;;;;;;;;;4995075;28;20202;-62
2023/03/14 03:52:44;;;;;;;8.13;1.90;;;;;;;;;;4996320;28;20247;-62
2023/03/14 03:55:11;;;;;;;3.30;1.10;;;;;;;;;;4996024;28;20201;-62
2023/03/14 03:57:38;;;;;;;4.17;1.37;;;;;;;;;;4995081;28;20209;-61
2023/03/14 04:00:07;;;;;;;3.87;1.33;;;;;;;;;;4995809;28;20205;-62
2023/03/14 04:02:35;;;;;;;3.90;1.40;;;;;;;;;;4998577;28;20216;-62
2023/03/14 04:05:03;;;;;;;6.43;1.40;;;;;;;;;;5005511;28;20223;-61
2023/03/14 04:07:32;;;;;;;3.93;1.73;;;;;;;;;;5006503;28;20204;-61
2023/03/14 04:10:00;;;;;;;3.43;1.27;;;;;;;;;;4996842;28;20205;-62
2023/03/14 04:12:27;;;;;;;4.00;1.20;;;;;;;;;;4997061;28;20216;-61
2023/03/14 04:14:54;;;;;;;3.30;1.57;;;;;;;;;;4995496;28;20213;-61
2023/03/14 04:17:21;;;;;;;4.53;1.63;;;;;;;;;;4997278;28;20201;-61
2023/03/14 04:19:50;;;;;;;5.57;1.60;;;;;;;;;;4996747;28;20303;-61
2023/03/14 04:22:19;;;;;;;3.83;1.20;;;;;;;;;;4996197;28;20224;-61
2023/03/14 04:24:46;;;;;;;4.23;1.40;;;;;;;;;;4997090;28;20201;-61
2023/03/14 04:27:14;;;;;;;5.43;1.40;;;;;;;;;;4995746;28;20205;-61
2023/03/14 04:29:41;;;;;;;4.33;1.73;;;;;;;;;;4997316;28;20221;-61
2023/03/14 04:32:08;;;;;;;3.03;1.00;;;;;;;;;;4998859;28;20220;-61
2023/03/14 04:34:35;;;;;;;1.97;0.90;;;;;;;;;;4997162;28;20209;-61
2023/03/14 04:37:03;;;;;;;4.07;1.20;;;;;;;;;;4999606;28;20200;-61
2023/03/14 04:39:31;;;;;;;2.37;1.00;;;;;;;;;;4997029;28;20209;-61
2023/03/14 04:41:58;;;;;;;1.90;1.10;;;;;;;;;;4996722;28;20205;-61
2023/03/14 04:44:26;;;;;;;3.67;0.83;;;;;;;;;;4995352;28;20211;-61
2023/03/14 04:46:53;;;;;;;1.97;0.87;;;;;;;;;;4994575;28;20229;-61
2023/03/14 04:49:20;;;;;;;3.57;0.93;;;;;;;;;;4993848;28;20219;-62
2023/03/14 04:51:47;;;;;;;3.40;1.20;;;;;;;;;;4994069;28;20213;-61
2023/03/14 04:54:14;;;;;;;2.83;0.97;;;;;;;;;;4994055;28;20232;-62
2023/03/14 04:56:43;;;;;;;2.73;1.13;;;;;;;;;;4994244;28;20201;-61
2023/03/14 04:59:10;;;;;;;3.93;1.23;;;;;;;;;;4998900;28;20207;-61
2023/03/14 05:01:37;;;;;;;2.80;1.10;;;;;;;;;;5001125;28;20207;-62
2023/03/14 05:04:04;;;;;;;4.00;1.40;;;;;;;;;;5003706;28;20208;-61
2023/03/14 05:06:31;;;;;;;4.10;1.17;;;;;;;;;;5007385;28;20231;-61
2023/03/14 05:08:59;;;;;;;5.33;1.50;;;;;;;;;;5004605;28;20205;-62
2023/03/14 05:11:26;;;;;;;4.57;3.03;;;;;;;;;;5001545;28;20264;-61
2023/03/14 05:13:54;;;;;;;2.87;1.33;;;;;;;;;;5007394;28;20200;-61
2023/03/14 05:16:21;;;;;;;6.40;1.57;;;;;;;;;;5000256;28;20205;-62
2023/03/14 05:18:48;;;;;;;7.57;1.90;;;;;;;;;;5006979;28;20210;-62
2023/03/14 05:21:15;;;;;;;6.03;1.97;;;;;;;;;;5001135;28;20210;-61
2023/03/14 05:23:43;;;;;;;4.97;1.50;;;;;;;;;;5005087;28;20207;-61
2023/03/14 05:26:10;;;;;;;4.27;1.50;;;;;;;;;;5002600;28;20225;-61
2023/03/14 05:28:37;;;;;;;3.97;1.57;;;;;;;;;;5000096;28;20219;-62
2023/03/14 05:31:09;;;;;;;6.27;1.70;;;;;;;;;;4996672;28;20205;-62
2023/03/14 05:33:36;;;;;;;9.27;2.07;;;;;;;;;;5005310;28;20211;-61
2023/03/14 05:36:03;;;;;;;4.00;1.70;;;;;;;;;;5003659;28;20223;-61
2023/03/14 05:38:30;;;;;;;3.47;1.50;;;;;;;;;;5003581;28;20209;-61
2023/03/14 05:40:57;;;;;;;3.67;1.50;;;;;;;;;;5003686;28;20215;-61
2023/03/14 05:43:24;;;;;;;3.40;1.47;;;;;;;;;;5006722;28;20197;-61
2023/03/14 05:45:51;;;;;;;4.37;1.63;;;;;;;;;;5003651;28;20227;-61
2023/03/14 05:48:21;;;;;;;5.10;1.60;;;;;;;;;;5004394;28;20200;-61
2023/03/14 05:50:48;;;;;;;4.33;1.47;;;;;;;;;;4998201;28;20339;-61
2023/03/14 05:53:15;;;;;;;6.57;1.80;;;;;;;;;;5001050;28;20209;-62
2023/03/14 05:55:42;;;;;;;5.67;1.80;;;;;;;;;;5007310;28;20275;-61
2023/03/14 05:58:10;;;;;;;3.77;1.70;;;;;;;;;;5005251;28;20209;-61
2023/03/14 06:00:37;;;;;;;4.43;1.50;;;;;;;;;;5004478;28;20196;-62
2023/03/14 06:03:04;;;;;;;5.73;1.63;;;;;;;;;;5004590;28;20205;-62
2023/03/14 06:05:32;;;;;;;3.87;1.60;;;;;;;;;;5008312;28;20209;-61
2023/03/14 06:08:00;;;;;;;2.60;1.30;;;;;;;;;;5004924;28;20295;-62
2023/03/14 06:10:27;;;;;;;4.57;1.50;;;;;;;;;;5006201;28;20205;-62
2023/03/14 06:12:54;;;;;;;2.20;1.40;;;;;;;;;;5005426;28;20205;-61
2023/03/14 06:15:21;;;;;;;2.70;1.30;;;;;;;;;;4999551;28;20215;-62
2023/03/14 06:17:48;;;;;;;2.73;1.20;;;;;;;;;;5001673;28;20209;-61
2023/03/14 06:20:15;;;;;;;3.37;1.40;;;;;;;;;;5004867;28;20299;-61
2023/03/14 06:22:44;;;;;;;3.00;1.13;;;;;;;;;;5005149;28;20299;-62
2023/03/14 06:25:11;;;;;;;2.10;1.10;;;;;;;;;;5005024;28;20205;-61
2023/03/14 06:27:38;;;;;;;2.67;0.90;;;;;;;;;;5000035;28;20228;-61
2023/03/14 06:30:06;;;;;;;1.13;0.90;;;;;;;;;;5004118;28;20212;-61
2023/03/14 06:32:33;;;;;;;1.33;0.90;;;;;;;;;;5003177;28;20215;-61
2023/03/14 06:35:00;;;;;;;1.80;0.93;;;;;;;;;;4995536;28;20205;-61
2023/03/14 06:37:28;;;;;;;4.03;1.10;;;;;;;;;;4996208;28;20385;-61
2023/03/14 06:39:57;;;;;;;2.90;1.10;;;;;;;;;;4991513;28;20204;-61
2023/03/14 06:42:24;;;;;;;3.93;1.10;;;;;;;;;;4999557;28;20201;-62
2023/03/14 06:44:51;;;;;;;4.23;1.10;;;;;;;;;;4999914;28;20205;-62
2023/03/14 06:47:19;;;;;;;1.77;0.80;;;;;;;;;;5002644;28;20217;-61
2023/03/14 06:49:46;;;;;;;3.20;0.97;;;;;;;;;;5003282;28;20328;-61
2023/03/14 06:52:13;;;;;;;2.53;0.97;;;;;;;;;;4995025;28;20300;-61
2023/03/14 06:54:40;;;;;;;3.60;1.03;;;;;;;;;;5003484;28;20212;-61
2023/03/14 06:57:08;;;;;;;2.60;0.93;;;;;;;;;;5000782;28;20212;-61
2023/03/14 06:59:36;;;;;;;1.93;0.90;;;;;;;;;;5004104;28;20227;-62
2023/03/14 07:02:03;;;;;;;3.40;1.20;;;;;;;;;;5000624;28;20296;-61
2023/03/14 07:04:30;;;;;;;2.93;1.10;;;;;;;;;;5002065;28;20205;-61
2023/03/14 07:06:57;;;;;;;2.60;1.20;;;;;;;;;;5003123;28;20233;-61
2023/03/14 07:09:24;;;;;;;3.57;0.90;;;;;;;;;;5000990;28;20197;-61
2023/03/14 07:11:51;;;;;;;2.17;1.10;;;;;;;;;;4999679;28;20216;-61
2023/03/14 07:14:20;;;;;;;2.77;0.97;;;;;;;;;;5002661;28;20200;-61
2023/03/14 07:16:47;;;;;;;2.30;0.90;;;;;;;;;;5000845;28;20212;-62
2023/03/14 07:19:14;;;;;;;2.27;0.90;;;;;;;;;;5001394;28;20205;-61
2023/03/14 07:21:41;;;;;;;1.20;0.87;;;;;;;;;;5002814;28;20215;-61
2023/03/14 07:24:08;;;;;;;0.53;0.50;;;;;;;;;;5010352;28;20208;-61
2023/03/14 07:26:36;;;;;;;1.97;0.80;;;;;;;;;;5008501;28;20222;-61
2023/03/14 07:29:03;;;;;;;1.93;0.60;;;;;;;;;;5006324;28;20206;-61
2023/03/14 07:31:32;;;;;;;1.37;0.70;;;;;;;;;;5014538;22;20225;-61
2023/03/14 07:33:59;;;;;;;1.27;0.80;;;;;;;;;;5002571;28;20211;-61
2023/03/14 07:36:26;;;;;;;1.10;0.70;;;;;;;;;;5012880;28;20193;-61
2023/03/14 07:38:53;;;;;;;2.60;0.87;;;;;;;;;;5012406;28;20205;-61
2023/03/14 07:41:21;;;;;;;0.60;0.60;;;;;;;;;;5011578;28;20212;-61
2023/03/14 07:43:48;;;;;;;3.43;0.87;;;;;;;;;;5006160;28;20439;-62
2023/03/14 07:46:15;;;;;;;2.00;0.73;;;;;;;;;;5004203;28;20224;-61
2023/03/14 07:48:43;;;;;;;1.10;0.60;;;;;;;;;;5004845;28;20272;-62
2023/03/14 07:51:10;;;;;;;1.60;0.87;;;;;;;;;;4999797;28;20213;-61
2023/03/14 07:53:42;;;;;;;1.83;0.70;;;;;;;;;;4994485;28;20216;-62
2023/03/14 07:56:10;;;;;;;1.80;0.60;;;;;;;;;;5000006;28;20281;-61
2023/03/14 07:58:37;;;;;;;0.70;0.70;;;;;;;;;;4999446;28;20209;-61
2023/03/14 08:01:04;;;;;;;1.80;0.60;;;;;;;;;;5006452;28;20203;-61
2023/03/14 08:03:31;;;;;;;0.50;0.50;;;;;;;;;;5003055;28;20196;-62
2023/03/14 08:06:00;;;;;;;1.63;0.60;;;;;;;;;;4999914;28;20217;-61
2023/03/14 08:08:27;;;;;;;1.77;0.80;;;;;;;;;;5000381;28;20223;-61
2023/03/14 08:10:54;;;;;;;0.70;0.53;;;;;;;;;;5002492;28;20299;-61
2023/03/14 08:13:23;;;;;;;1.00;0.80;;;;;;;;;;5002147;28;20201;-61
2023/03/14 08:15:53;;;;;;;1.80;0.53;;;;;;;;;;5001606;28;20216;-61
2023/03/14 08:18:20;;;;;;;1.63;0.70;;;;;;;;;;5001153;28;20300;-62
2023/03/14 08:20:48;;;;;;;1.53;0.80;;;;;;;;;;5002444;28;20276;-62
2023/03/14 08:23:16;;;;;;;0.60;0.60;;;;;;;;;;5003231;28;20267;-62
2023/03/14 08:25:43;;;;;;;1.03;0.60;;;;;;;;;;5005453;28;20211;-62
2023/03/14 08:28:11;;;;;;;3.40;3.10;;;;;;;;;;5002784;28;20233;-62
2023/03/14 08:30:38;;;;;;;0.97;0.70;;;;;;;;;;4996324;28;20224;-62
2023/03/14 08:33:05;;;;;;;2.67;0.90;;;;;;;;;;5004838;28;20212;-62
2023/03/14 08:35:32;;;;;;;0.77;0.57;;;;;;;;;;5003253;28;20221;-61
2023/03/14 08:37:59;;;;;;;0.50;0.50;;;;;;;;;;5003072;28;20205;-62
2023/03/14 08:40:28;;;;;;;1.17;0.60;;;;;;;;;;4995028;28;20213;-62
2023/03/14 08:42:55;;;;;;;2.00;0.67;;;;;;;;;;5002003;28;20227;-61
2023/03/14 08:45:24;;;;;;;0.80;0.80;;;;;;;;;;4994147;28;20213;-62
2023/03/14 08:47:52;;;;;;;2.07;0.63;;;;;;;;;;5006980;28;20216;-61
2023/03/14 08:50:19;;;;;;;1.33;0.50;;;;;;;;;;5002684;28;20215;-62
2023/03/14 08:52:46;;;;;;;0.77;0.50;;;;;;;;;;5001744;28;20339;-62
2023/03/14 08:55:13;;;;;;;0.60;0.50;;;;;;;;;;4992950;28;20204;-61
2023/03/14 08:57:42;;;;;;;1.23;0.50;;;;;;;;;;5004663;28;20296;-61
2023/03/14 09:00:11;;;;;;;1.23;0.63;;;;;;;;;;4998130;28;20211;-61
2023/03/14 09:02:39;;;;;;;0.70;0.70;;;;;;;;;;5004209;28;20204;-62
2023/03/14 09:05:06;;;;;;;1.33;0.63;;;;;;;;;;5008060;28;20205;-62
2023/03/14 09:07:33;;;;;;;0.77;0.77;;;;;;;;;;5005235;28;20221;-62
2023/03/14 09:10:01;;;;;;;1.63;0.60;;;;;;;;;;5001714;28;20209;-62
2023/03/14 09:12:28;;;;;;;1.23;0.70;;;;;;;;;;5005129;28;20212;-62
2023/03/14 09:14:56;;;;;;;0.83;0.57;;;;;;;;;;5007733;28;20204;-62
2023/03/14 09:17:23;;;;;;;0.53;0.53;;;;;;;;;;5008264;28;20219;-62
2023/03/14 09:19:50;;;;;;;1.50;0.73;;;;;;;;;;5004828;28;20219;-61
2023/03/14 09:22:18;;;;;;;0.30;0.30;;;;;;;;;;5005523;28;20300;-61
2023/03/14 09:24:46;;;;;;;0.40;0.40;;;;;;;;;;4998801;28;20300;-61
2023/03/14 09:27:13;;;;;;;2.00;0.60;;;;;;;;;;5004765;28;20225;-62
2023/03/14 09:29:40;;;;;;;1.37;0.57;;;;;;;;;;5002963;28;20304;-61
2023/03/14 09:32:09;;;;;;;1.13;0.80;;;;;;;;;;5005062;28;20205;-61
2023/03/14 09:34:36;;;;;;;0.70;0.70;;;;;;;;;;5005847;28;20210;-61
2023/03/14 09:37:03;;;;;;;0.50;0.50;;;;;;;;;;5003114;28;20300;-61
2023/03/14 09:39:30;;;;;;;0.70;0.70;;;;;;;;;;5004480;28;20211;-61
2023/03/14 09:42:00;;;;;;;0.50;0.50;;;;;;;;;;5002369;28;20228;-61
2023/03/14 09:44:28;;;;;;;0.50;0.50;;;;;;;;;;5008135;28;20205;-61
2023/03/14 09:46:57;;;;;;;0.40;0.40;;;;;;;;;;5005780;28;20271;-61
2023/03/14 09:49:28;;;;;;;0.30;0.30;;;;;;;;;;5002132;28;20288;-61
2023/03/14 09:51:56;;;;;;;0.10;0.10;;;;;;;;;;5006785;28;20219;-61
2023/03/14 09:54:28;;;;;;;0.10;0.10;;;;;;;;;;5004419;28;20205;-61
2023/03/14 10:01:56;;;;;;;0.10;0.10;;;;;;;;;;5014829;28;20208;-62
2023/03/14 10:04:24;;;;;;;0.10;0.10;;;;;;;;;;5020922;28;20287;-62
2023/03/14 10:06:52;;;;;;;0.20;0.20;;;;;;;;;;5017001;28;20235;-61
2023/03/14 10:09:24;;;;;;;0.10;0.10;;;;;;;;;;5020788;28;20276;-62
2023/03/14 10:11:53;;;;;;;0.00;0.00;;;;;;;;;;5020322;28;20201;-62
2023/03/14 10:14:30;;;;;;;0.30;0.30;;;;;;;;;;5014363;28;20215;-61
2023/03/14 10:17:05;;;;;;;0.33;0.33;;;;;;;;;;5027979;28;20210;-61
2023/03/14 10:19:32;;;;;;;0.10;0.10;;;;;;;;;;5027044;28;20200;-62
2023/03/14 10:22:02;;;;;;;0.30;0.30;;;;;;;;;;5019425;28;20215;-62
2023/03/14 10:24:32;;;;;;;0.40;0.40;;;;;;;;;;5023848;28;20196;-62
2023/03/14 10:27:02;;;;;;;0.27;0.27;;;;;;;;;;5004458;28;20220;-61
2023/03/14 10:29:30;;;;;;;0.30;0.20;;;;;;;;;;5021968;28;20200;-61
2023/03/14 10:32:00;;;;;;;0.30;0.20;;;;;;;;;;5021884;28;20239;-62
2023/03/14 10:34:28;;;;;;;0.33;0.33;;;;;;;;;;5021734;28;20311;-61
2023/03/14 10:36:56;;;;;;;0.40;0.40;;;;;;;;;;5020474;28;20216;-61
2023/03/14 10:39:28;;;;;;;0.50;0.50;;;;;;;;;;5024661;28;20211;-61
2023/03/14 10:41:57;;;;;;;0.73;0.50;;;;;;;;;;5016540;28;20204;-61
2023/03/14 10:44:26;;;;;;;0.50;0.50;;;;;;;;;;5022641;28;20298;-61
2023/03/14 10:47:01;;;;;;;1.40;0.50;;;;;;;;;;5023176;28;20205;-62
2023/03/14 10:49:29;;;;;;;0.70;0.57;;;;;;;;;;5023808;28;20232;-62
2023/03/14 10:51:56;;;;;;;0.50;0.50;;;;;;;;;;5021587;28;20200;-62
2023/03/14 10:54:24;;;;;;;0.70;0.70;;;;;;;;;;5018514;28;20203;-62
2023/03/14 10:57:00;;;;;;;0.70;0.70;;;;;;;;;;5025698;28;20204;-63
2023/03/14 10:59:29;;;;;;;1.30;1.20;;;;;;;;;;5021400;28;20210;-62
2023/03/14 11:01:57;;;;;;;0.87;0.80;;;;;;;;;;5022541;28;20196;-62
2023/03/14 11:04:39;;;;;;;0.83;0.70;;;;;;;;;;5023501;28;20204;-62
2023/03/14 11:07:09;;;;;;;0.80;0.80;;;;;;;;;;5023501;28;20200;-62
2023/03/14 11:09:41;;;;;;;0.80;0.73;;;;;;;;;;5013274;28;20207;-62
2023/03/14 11:12:19;;;;;;;0.70;0.70;;;;;;;;;;5024916;28;20207;-62
2023/03/14 11:14:49;;;;;;;0.70;0.70;;;;;;;;;;5021184;28;20211;-62
2023/03/14 11:17:21;;;;;;;0.70;0.70;;;;;;;;;;5020936;28;20204;-62
2023/03/14 11:19:55;;;;;;;0.60;0.60;;;;;;;;;;5025640;28;20208;-62
2023/03/14 11:22:25;;;;;;;0.70;0.70;;;;;;;;;;5025573;28;20228;-62
2023/03/14 11:25:03;;;;;;;1.03;0.77;;;;;;;;;;5025326;28;20200;-61
2023/03/14 11:27:36;;;;;;;1.60;0.60;;;;;;;;;;5025345;28;20222;-62
2023/03/14 11:30:06;;;;;;;0.87;0.60;;;;;;;;;;5022219;28;20272;-62
2023/03/14 11:32:38;;;;;;;0.63;0.63;;;;;;;;;;5020868;28;20250;-62
2023/03/14 11:35:10;;;;;;;0.80;0.80;;;;;;;;;;5024352;28;20203;-62
2023/03/14 11:37:42;;;;;;;1.07;0.83;;;;;;;;;;5022674;28;20204;-62
2023/03/14 11:40:14;;;;;;;0.93;0.93;;;;;;;;;;5023163;28;20207;-62
2023/03/14 11:42:44;;;;;;;0.90;0.90;;;;;;;;;;5030036;28;20202;-62
2023/03/14 11:45:17;;;;;;;0.80;0.80;;;;;;;;;;5032117;28;20199;-62
2023/03/14 11:47:45;;;;;;;0.70;0.70;;;;;;;;;;5026670;28;20224;-62
2023/03/14 11:50:16;;;;;;;0.73;0.73;;;;;;;;;;5026676;28;20223;-62
2023/03/14 11:52:46;;;;;;;0.93;0.80;;;;;;;;;;5021277;28;20307;-62
2023/03/14 11:55:14;;;;;;;1.07;0.97;;;;;;;;;;5025466;28;20201;-62
2023/03/14 11:57:43;;;;;;;1.43;0.90;;;;;;;;;;5022468;28;20201;-62
2023/03/14 12:00:16;;;;;;;0.87;0.87;;;;;;;;;;5019709;28;20222;-62
2023/03/14 12:02:47;;;;;;;1.33;0.90;;;;;;;;;;5021421;28;20200;-62
2023/03/14 12:05:24;;;;;;;1.20;1.00;;;;;;;;;;5029360;28;20208;-62
2023/03/14 12:08:00;;;;;;;1.43;0.93;;;;;;;;;;5016670;28;20227;-62
2023/03/14 12:10:28;;;;;;;1.03;1.00;;;;;;;;;;5018211;28;20214;-62
2023/03/14 12:12:56;;;;;;;4.77;1.10;;;;;;;;;;5013787;28;20212;-62
2023/03/14 12:15:24;;;;;;;1.10;0.80;;;;;;;;;;5018524;28;20200;-62
2023/03/14 12:17:55;;;;;;;0.93;0.80;;;;;;;;;;5025401;28;20206;-63
2023/03/14 12:20:23;;;;;;;2.53;1.07;;;;;;;;;;5023161;28;20200;-62
2023/03/14 12:22:52;;;;;;;2.33;0.93;;;;;;;;;;5022999;28;20209;-62
2023/03/14 12:25:20;;;;;;;1.53;1.23;;;;;;;;;;5022103;28;20294;-62
2023/03/14 12:27:49;;;;;;;1.57;0.83;;;;;;;;;;5021523;28;20227;-62
2023/03/14 12:30:27;;;;;;;1.63;0.70;;;;;;;;;;5015416;28;20204;-62
2023/03/14 12:33:12;;;;;;;0.97;0.80;;;;;;;;;;5017785;28;20262;-62
2023/03/14 12:35:41;;;;;;;2.07;0.90;;;;;;;;;;5022664;28;20204;-61
2023/03/14 12:38:10;;;;;;;0.73;0.67;;;;;;;;;;5023223;28;20200;-62
2023/03/14 12:40:41;;;;;;;1.03;0.60;;;;;;;;;;5018583;28;20263;-62
2023/03/14 12:43:25;;;;;;;1.00;0.60;;;;;;;;;;5025764;28;20196;-62
2023/03/14 12:46:07;;;;;;;5.67;1.17;;;;;;;;;;5022666;28;20287;-62
2023/03/14 12:48:36;;;;;;;2.07;0.70;;;;;;;;;;5023549;28;20219;-62
2023/03/14 12:51:04;;;;;;;2.10;0.70;;;;;;;;;;5016195;28;20208;-62
2023/03/14 12:53:49;;;;;;;1.63;0.80;;;;;;;;;;5024179;28;20207;-62
2023/03/14 12:56:22;;;;;;;0.60;0.60;;;;;;;;;;5022818;28;20211;-62
2023/03/14 12:58:53;;;;;;;4.20;0.90;;;;;;;;;;5004514;28;20201;-62
2023/03/14 13:01:21;;;;;;;3.90;0.80;;;;;;;;;;5020281;28;20217;-62
2023/03/14 13:03:53;;;;;;;2.93;0.80;;;;;;;;;;5015314;28;20210;-62
2023/03/14 13:06:39;;;;;;;1.13;0.60;;;;;;;;;;5021275;28;20211;-62
2023/03/14 13:09:21;;;;;;;0.50;0.50;;;;;;;;;;5018992;28;20225;-62
2023/03/14 13:11:48;;;;;;;1.83;0.47;;;;;;;;;;5012233;28;20211;-63
2023/03/14 13:14:15;;;;;;;2.57;0.70;;;;;;;;;;5020809;28;20196;-63
2023/03/14 13:16:43;;;;;;;1.57;0.60;;;;;;;;;;5025072;28;20294;-64
2023/03/14 13:19:17;;;;;;;0.77;0.70;;;;;;;;;;5023774;28;20209;-63
2023/03/14 13:21:44;;;;;;;0.60;0.60;;;;;;;;;;5022267;28;20215;-63
2023/03/14 13:24:22;;;;;;;12.13;1.30;;;;;;;;;;5011652;28;20242;-62
2023/03/14 13:26:49;;;;;;;3.67;0.80;;;;;;;;;;5015898;28;20204;-62
2023/03/14 13:29:17;;;;;;;1.77;0.80;;;;;;;;;;5013833;28;20227;-63
2023/03/14 13:31:46;;;;;;;0.50;0.50;;;;;;;;;;5022415;28;20230;-63
2023/03/14 13:34:15;;;;;;;0.90;0.67;;;;;;;;;;5029221;28;20199;-63
2023/03/14 13:36:42;;;;;;;4.00;0.80;;;;;;;;;;5019780;28;20212;-63
2023/03/14 13:39:12;;;;;;;4.00;0.90;;;;;;;;;;5020737;28;20243;-62
2023/03/14 13:41:40;;;;;;;1.63;0.60;;;;;;;;;;5023001;28;20208;-63
2023/03/14 13:44:08;;;;;;;2.90;0.90;;;;;;;;;;5024406;28;20203;-62
2023/03/14 13:46:36;;;;;;;1.50;0.90;;;;;;;;;;5016278;28;20207;-62
2023/03/14 13:49:04;;;;;;;1.50;0.70;;;;;;;;;;5016457;28;20220;-63
2023/03/14 13:51:34;;;;;;;2.27;0.97;;;;;;;;;;5017983;28;20210;-63
2023/03/14 13:54:02;;;;;;;0.80;0.77;;;;;;;;;;5020381;28;20204;-62
2023/03/14 13:56:30;;;;;;;1.80;0.80;;;;;;;;;;5009888;28;20228;-62
2023/03/14 13:58:58;;;;;;;1.03;0.73;;;;;;;;;;5017982;28;20201;-62
2023/03/14 14:01:26;;;;;;;0.73;0.60;;;;;;;;;;5023760;28;20319;-62
2023/03/14 14:03:55;;;;;;;2.97;0.90;;;;;;;;;;5011371;28;20232;-62
2023/03/14 14:06:27;;;;;;;1.30;0.80;;;;;;;;;;5018470;28;20202;-62
2023/03/14 14:08:56;;;;;;;1.63;0.60;;;;;;;;;;5021788;28;20228;-62
2023/03/14 14:11:34;;;;;;;1.30;0.90;;;;;;;;;;5029171;28;20199;-62
2023/03/14 14:14:01;;;;;;;2.03;0.90;;;;;;;;;;5025114;28;20215;-62
2023/03/14 14:16:29;;;;;;;2.53;0.83;;;;;;;;;;5021860;28;20227;-62
2023/03/14 14:18:57;;;;;;;2.80;1.10;;;;;;;;;;5023566;28;20200;-61
2023/03/14 14:21:24;;;;;;;1.80;1.00;;;;;;;;;;5018005;28;20205;-61
2023/03/14 14:23:52;;;;;;;0.83;0.50;;;;;;;;;;5021333;28;20314;-61
2023/03/14 14:26:21;;;;;;;2.70;0.73;;;;;;;;;;5019731;28;20204;-61
2023/03/14 14:28:49;;;;;;;2.50;0.70;;;;;;;;;;5022806;28;20234;-61
2023/03/14 14:31:21;;;;;;;4.07;1.00;;;;;;;;;;5023183;28;20215;-61
2023/03/14 14:33:54;;;;;;;2.30;0.97;;;;;;;;;;5024151;28;20228;-61
2023/03/14 14:36:23;;;;;;;2.17;1.00;;;;;;;;;;5016668;28;20212;-61
2023/03/14 14:38:51;;;;;;;3.00;1.03;;;;;;;;;;5012712;28;20200;-62
2023/03/14 14:41:18;;;;;;;3.43;0.93;;;;;;;;;;5012473;28;20231;-61
2023/03/14 14:43:47;;;;;;;3.43;1.10;;;;;;;;;;5022452;28;20204;-63
2023/03/14 14:46:18;;;;;;;3.73;1.00;;;;;;;;;;5014551;28;20204;-62
2023/03/14 14:48:48;;;;;;;2.33;1.07;;;;;;;;;;5019136;28;20228;-61
2023/03/14 14:51:23;;;;;;;2.10;0.80;;;;;;;;;;5020059;28;20218;-62
2023/03/14 14:53:51;;;;;;;3.23;1.20;;;;;;;;;;5020065;28;20204;-62
2023/03/14 14:56:22;;;;;;;2.07;1.07;;;;;;;;;;5022834;28;20200;-61
2023/03/14 14:58:50;;;;;;;2.43;0.93;;;;;;;;;;5008928;28;20259;-61
2023/03/14 15:01:19;;;;;;;2.10;1.00;;;;;;;;;;5017573;28;20220;-61
2023/03/14 15:03:47;;;;;;;2.13;1.00;;;;;;;;;;5014015;28;20209;-61
2023/03/14 15:06:15;;;;;;;3.13;1.30;;;;;;;;;;5018214;28;20224;-62
2023/03/14 15:08:43;;;;;;;1.63;1.07;;;;;;;;;;5018948;28;20229;-63
2023/03/14 15:11:14;;;;;;;2.17;1.07;;;;;;;;;;5025546;28;20288;-63
2023/03/14 15:13:41;;;;;;;3.53;1.20;;;;;;;;;;5000532;28;20214;-62
2023/03/14 15:16:12;;;;;;;2.03;1.03;;;;;;;;;;5016364;28;20196;-63
2023/03/14 15:18:39;;;;;;;2.27;1.00;;;;;;;;;;5014825;28;20209;-62
2023/03/14 15:21:06;;;;;;;2.63;1.30;;;;;;;;;;5025586;28;20212;-62
2023/03/14 15:23:33;;;;;;;4.07;1.10;;;;;;;;;;5018448;28;20208;-62